createdAt,value
2023-05-18T00:00:14.207Z,1.58
2023-05-18T00:02:44.970Z,1.42
2023-05-18T00:05:13.086Z,1.40
2023-05-18T00:07:41.176Z,1.50
2023-05-18T00:10:11.122Z,1.35
2023-05-18T00:12:40.594Z,1.77
2023-05-18T00:15:10.414Z,1.33
2023-05-18T00:17:38.432Z,1.42
2023-05-18T00:20:10.718Z,1.48
2023-05-18T00:22:39.265Z,1.50
2023-05-18T00:25:07.730Z,1.67
2023-05-18T00:27:35.726Z,1.45
2023-05-18T00:30:06.326Z,1.35
2023-05-18T00:32:34.324Z,1.15
2023-05-18T00:35:02.846Z,1.90
2023-05-18T00:37:30.829Z,1.30
2023-05-18T00:39:58.766Z,1.60
2023-05-18T00:42:26.816Z,1.20
2023-05-18T00:44:54.796Z,1.33
2023-05-18T00:47:24.162Z,1.75
2023-05-18T00:49:52.804Z,1.40
2023-05-18T00:52:21.509Z,1.60
2023-05-18T00:54:50.421Z,1.60
2023-05-18T00:57:20.178Z,1.48
2023-05-18T00:59:48.990Z,2.20
2023-05-18T01:02:17.246Z,1.63
2023-05-18T01:04:48.572Z,1.58
2023-05-18T01:07:16.698Z,1.40
2023-05-18T01:09:44.762Z,1.35
2023-05-18T01:12:19.832Z,1.25
2023-05-18T01:14:53.591Z,1.58
2023-05-18T01:17:28.184Z,1.65
2023-05-18T01:20:13.068Z,1.50
2023-05-18T01:23:10.240Z,1.45
2023-05-18T01:25:51.334Z,1.33
2023-05-18T01:28:22.570Z,1.27
2023-05-18T01:30:51.993Z,1.50
2023-05-18T01:33:20.111Z,1.15
2023-05-18T01:35:51.893Z,1.20
2023-05-18T01:38:22.086Z,1.95
2023-05-18T01:40:57.903Z,1.80
2023-05-18T01:43:33.245Z,1.50
2023-05-18T01:46:11.171Z,1.50
2023-05-18T01:48:41.231Z,1.65
2023-05-18T01:51:15.042Z,1.45
2023-05-18T01:53:47.728Z,1.45
2023-05-18T01:56:16.337Z,1.65
2023-05-18T01:58:46.130Z,1.50
2023-05-18T02:01:16.151Z,1.65
2023-05-18T02:03:45.241Z,1.60
2023-05-18T02:06:13.237Z,1.88
2023-05-18T02:08:41.480Z,1.70
2023-05-18T02:11:09.495Z,1.65
2023-05-18T02:13:37.553Z,1.42
2023-05-18T02:16:07.920Z,1.40
2023-05-18T02:18:36.503Z,1.52
2023-05-18T02:21:05.150Z,1.58
2023-05-18T02:23:33.940Z,1.73
2023-05-18T02:26:02.556Z,1.55
2023-05-18T02:28:30.768Z,1.52
2023-05-18T02:31:07.955Z,1.30
2023-05-18T02:33:40.270Z,1.60
2023-05-18T02:38:42.193Z,1.80
2023-05-18T02:41:10.598Z,1.42
2023-05-18T02:43:38.623Z,1.60
2023-05-18T02:46:08.151Z,1.45
2023-05-18T02:48:39.081Z,1.77
2023-05-18T02:51:07.139Z,1.02
2023-05-18T02:53:35.127Z,1.90
2023-05-18T02:56:04.180Z,1.65
2023-05-18T02:58:32.261Z,1.77
2023-05-18T03:01:00.979Z,1.65
2023-05-18T03:03:30.575Z,1.40
2023-05-18T03:05:58.575Z,1.73
2023-05-18T03:08:27.390Z,1.60
2023-05-18T03:10:55.580Z,1.10
2023-05-18T03:13:23.563Z,1.48
2023-05-18T03:15:51.964Z,1.80
2023-05-18T03:18:20.146Z,1.73
2023-05-18T03:20:52.248Z,1.60
2023-05-18T03:23:20.871Z,1.45
2023-05-18T03:25:53.642Z,1.40
2023-05-18T03:28:21.717Z,1.50
2023-05-18T03:30:49.944Z,1.85
2023-05-18T03:33:18.073Z,2.00
2023-05-18T03:35:47.871Z,1.65
2023-05-18T03:38:17.981Z,1.63
2023-05-18T03:40:45.993Z,1.90
2023-05-18T03:43:13.909Z,1.60
2023-05-18T03:45:41.906Z,1.58
2023-05-18T03:48:09.943Z,1.85
2023-05-18T03:50:38.122Z,1.67
2023-05-18T03:53:06.051Z,1.80
2023-05-18T03:55:35.508Z,1.70
2023-05-18T03:58:03.558Z,1.65
2023-05-18T04:00:31.544Z,1.80
2023-05-18T04:03:00.620Z,1.85
2023-05-18T04:08:00.145Z,1.83
2023-05-18T04:10:28.142Z,1.98
2023-05-18T04:12:57.623Z,1.58
2023-05-18T04:15:25.693Z,1.65
2023-05-18T04:17:53.959Z,1.40
2023-05-18T04:20:22.077Z,1.55
2023-05-18T04:22:50.783Z,1.60
2023-05-18T04:25:18.833Z,1.67
2023-05-18T04:27:48.426Z,2.08
2023-05-18T04:30:23.634Z,1.85
2023-05-18T04:32:54.808Z,1.60
2023-05-18T04:35:22.939Z,1.73
2023-05-18T04:37:50.869Z,1.77
2023-05-18T04:40:19.108Z,1.40
2023-05-18T04:42:47.911Z,1.70
2023-05-18T04:45:17.850Z,1.52
2023-05-18T04:47:53.646Z,1.70
2023-05-18T04:50:24.302Z,1.50
2023-05-18T04:52:53.264Z,1.50
2023-05-18T04:55:26.383Z,1.92
2023-05-18T04:57:56.551Z,1.55
2023-05-18T05:00:26.474Z,1.42
2023-05-18T05:02:56.981Z,1.70
2023-05-18T05:05:26.506Z,1.73
2023-05-18T05:07:55.754Z,1.48
2023-05-18T05:10:24.159Z,1.60
2023-05-18T05:12:52.419Z,1.70
2023-05-18T05:15:21.759Z,1.60
2023-05-18T05:17:50.606Z,1.70
2023-05-18T05:20:20.123Z,1.55
2023-05-18T05:22:48.390Z,1.88
2023-05-18T05:25:16.556Z,1.60
2023-05-18T05:27:44.606Z,1.60
2023-05-18T05:30:13.228Z,1.92
2023-05-18T05:32:41.225Z,1.58
2023-05-18T05:35:09.982Z,1.77
2023-05-18T05:37:39.493Z,1.73
2023-05-18T05:40:09.798Z,1.67
2023-05-18T05:42:37.884Z,1.65
2023-05-18T05:45:07.053Z,1.70
2023-05-18T05:47:35.021Z,1.63
2023-05-18T05:50:03.059Z,1.73
2023-05-18T05:52:30.986Z,1.65
2023-05-18T05:55:00.393Z,1.70
2023-05-18T05:57:28.400Z,1.45
2023-05-18T05:59:56.416Z,1.52
2023-05-18T06:02:24.518Z,1.90
2023-05-18T06:04:52.639Z,1.75
2023-05-18T06:07:20.604Z,1.58
2023-05-18T06:09:48.746Z,1.65
2023-05-18T06:12:21.461Z,1.38
2023-05-18T06:14:54.276Z,1.20
2023-05-18T06:17:22.247Z,1.58
2023-05-18T06:19:53.374Z,1.70
2023-05-18T06:22:21.730Z,1.60
2023-05-18T06:24:49.709Z,1.42
2023-05-18T06:27:19.478Z,1.40
2023-05-18T06:29:47.503Z,1.60
2023-05-18T06:32:15.593Z,1.58
2023-05-18T06:34:45.824Z,1.58
2023-05-18T06:37:13.934Z,1.48
2023-05-18T06:39:41.976Z,1.65
2023-05-18T06:42:12.874Z,1.85
2023-05-18T06:44:42.200Z,1.40
2023-05-18T06:47:10.281Z,1.88
2023-05-18T06:49:38.311Z,1.50
2023-05-18T06:52:08.829Z,2.28
2023-05-18T06:54:41.110Z,1.60
2023-05-18T06:59:36.881Z,1.40
2023-05-18T07:02:06.598Z,1.55
2023-05-18T07:04:34.703Z,1.67
2023-05-18T07:07:02.690Z,1.60
2023-05-18T07:09:30.786Z,1.50
2023-05-18T07:11:58.778Z,1.35
2023-05-18T07:14:26.847Z,1.35
2023-05-18T07:16:54.890Z,2.00
2023-05-18T07:19:24.319Z,1.52
2023-05-18T07:21:52.631Z,1.98
2023-05-18T07:24:20.727Z,1.60
2023-05-18T07:26:48.778Z,1.50
2023-05-18T07:29:16.800Z,1.23
2023-05-18T07:31:44.984Z,1.70
2023-05-18T07:34:13.065Z,1.55
2023-05-18T07:36:42.411Z,1.63
2023-05-18T07:39:19.121Z,1.50
2023-05-18T07:41:48.524Z,1.60
2023-05-18T07:44:16.800Z,1.40
2023-05-18T07:46:45.011Z,1.85
2023-05-18T07:49:16.005Z,1.55
2023-05-18T07:51:47.641Z,1.20
2023-05-18T07:54:15.941Z,1.45
2023-05-18T07:56:44.260Z,1.75
2023-05-18T07:59:12.720Z,1.60
2023-05-18T08:01:41.507Z,1.77
2023-05-18T08:04:09.683Z,1.40
2023-05-18T08:06:37.801Z,1.27
2023-05-18T08:09:07.505Z,1.50
2023-05-18T08:11:39.138Z,1.30
2023-05-18T08:14:07.441Z,1.60
2023-05-18T08:16:37.703Z,1.52
2023-05-18T08:19:05.906Z,1.40
2023-05-18T08:21:36.774Z,2.10
2023-05-18T08:24:05.451Z,1.83
2023-05-18T08:26:34.843Z,1.70
2023-05-18T08:29:09.460Z,1.80
2023-05-18T08:31:37.918Z,1.67
2023-05-18T08:34:07.060Z,1.83
2023-05-18T08:36:36.661Z,1.88
2023-05-18T08:39:05.648Z,1.50
2023-05-18T08:41:40.400Z,1.58
2023-05-18T08:44:16.268Z,1.77
2023-05-18T08:46:48.345Z,1.90
2023-05-18T08:49:18.865Z,1.75
2023-05-18T08:51:48.764Z,2.05
2023-05-18T08:54:22.108Z,2.10
2023-05-18T08:56:54.868Z,1.73
2023-05-18T08:59:25.769Z,1.90
2023-05-18T09:01:55.299Z,1.73
2023-05-18T09:04:27.285Z,1.90
2023-05-18T09:06:56.496Z,2.55
2023-05-18T09:09:25.305Z,1.45
2023-05-18T09:11:57.263Z,1.35
2023-05-18T09:14:26.712Z,1.90
2023-05-18T09:16:54.983Z,1.42
2023-05-18T09:19:24.740Z,1.90
2023-05-18T09:21:53.007Z,2.03
2023-05-18T09:24:24.487Z,1.58
2023-05-18T09:26:54.677Z,1.80
2023-05-18T09:29:24.289Z,1.90
2023-05-18T09:31:54.697Z,2.17
2023-05-18T09:34:24.429Z,2.40
2023-05-18T09:36:54.036Z,1.70
2023-05-18T09:39:22.101Z,2.15
2023-05-18T09:41:58.164Z,1.75
2023-05-18T09:44:32.569Z,2.03
2023-05-18T09:47:00.682Z,1.90
2023-05-18T09:49:30.882Z,1.73
2023-05-18T09:51:59.945Z,1.85
2023-05-18T09:54:27.905Z,2.35
2023-05-18T09:57:09.530Z,1.52
2023-05-18T09:59:39.122Z,1.90
2023-05-18T10:02:08.776Z,1.80
2023-05-18T10:04:38.468Z,1.60
2023-05-18T10:07:12.258Z,2.03
2023-05-18T10:09:41.040Z,1.55
2023-05-18T10:12:14.913Z,1.60
2023-05-18T10:14:44.074Z,2.33
2023-05-18T10:17:16.374Z,1.88
2023-05-18T10:19:45.992Z,1.92
2023-05-18T10:22:17.911Z,2.65
2023-05-18T10:24:50.595Z,2.88
2023-05-18T10:27:27.862Z,1.85
2023-05-18T10:29:59.761Z,1.88
2023-05-18T10:32:31.060Z,2.10
2023-05-18T10:35:00.893Z,2.08
2023-05-18T10:37:31.884Z,1.92
2023-05-18T10:40:02.519Z,1.88
2023-05-18T10:42:32.271Z,2.00
2023-05-18T10:45:01.922Z,1.85
2023-05-18T10:47:30.858Z,2.10
2023-05-18T10:50:00.812Z,2.00
2023-05-18T10:52:31.905Z,2.65
2023-05-18T10:55:00.697Z,1.88
2023-05-18T10:57:35.762Z,1.80
2023-05-18T11:00:07.039Z,2.10
2023-05-18T11:02:35.709Z,1.98
2023-05-18T11:05:07.228Z,1.92
2023-05-18T11:07:35.600Z,2.13
2023-05-18T11:10:04.791Z,2.00
2023-05-18T11:12:34.904Z,1.85
2023-05-18T11:15:02.908Z,2.15
2023-05-18T11:17:34.419Z,2.13
2023-05-18T11:20:17.370Z,1.80
2023-05-18T11:22:51.461Z,2.15
2023-05-18T11:25:39.559Z,2.03
2023-05-18T11:28:11.045Z,1.83
2023-05-18T11:30:52.624Z,1.85
2023-05-18T11:33:26.132Z,2.23
2023-05-18T11:35:59.909Z,2.10
2023-05-18T11:39:03.754Z,1.98
2023-05-18T11:41:36.386Z,1.65
2023-05-18T11:44:21.551Z,1.95
2023-05-18T11:46:54.261Z,2.22
2023-05-18T11:49:25.136Z,2.00
2023-05-18T11:52:04.165Z,1.70
2023-05-18T11:54:36.995Z,2.30
2023-05-18T11:57:05.414Z,1.88
2023-05-18T11:59:37.953Z,2.00
2023-05-18T12:02:06.486Z,2.50
2023-05-18T12:04:35.164Z,2.50
2023-05-18T12:07:08.046Z,1.90
2023-05-18T12:09:36.753Z,2.17
2023-05-18T12:12:05.111Z,2.13
2023-05-18T12:14:36.739Z,2.25
2023-05-18T12:17:06.049Z,2.38
2023-05-18T12:19:39.278Z,1.75
2023-05-18T12:22:09.783Z,2.90
2023-05-18T12:24:38.769Z,1.95
2023-05-18T12:27:07.889Z,1.85
2023-05-18T12:29:39.581Z,1.70
2023-05-18T12:32:09.588Z,2.17
2023-05-18T12:34:40.913Z,1.70
2023-05-18T12:37:09.070Z,1.70
2023-05-18T12:39:37.810Z,1.73
2023-05-18T12:42:13.358Z,1.63
2023-05-18T12:44:44.753Z,1.70
2023-05-18T12:47:13.540Z,2.10
2023-05-18T12:49:42.864Z,1.85
2023-05-18T12:52:12.574Z,2.05
2023-05-18T12:54:55.296Z,1.83
2023-05-18T12:57:27.032Z,2.05
2023-05-18T12:59:56.512Z,2.15
2023-05-18T13:02:33.590Z,1.90
2023-05-18T13:05:09.644Z,2.22
2023-05-18T13:07:39.043Z,1.80
2023-05-18T13:10:08.259Z,1.73
2023-05-18T13:12:41.293Z,2.00
2023-05-18T13:15:12.712Z,2.35
2023-05-18T13:17:48.675Z,2.60
2023-05-18T13:20:17.072Z,2.17
2023-05-18T13:22:45.833Z,1.92
2023-05-18T13:25:13.948Z,1.95
2023-05-18T13:27:42.044Z,1.90
2023-05-18T13:30:12.694Z,1.80
2023-05-18T13:32:40.748Z,1.92
2023-05-18T13:35:09.363Z,1.73
2023-05-18T13:37:37.349Z,2.00
2023-05-18T13:40:06.392Z,2.00
2023-05-18T13:42:34.767Z,2.20
2023-05-18T13:45:02.678Z,2.35
2023-05-18T13:47:32.098Z,1.88
2023-05-18T13:50:00.176Z,1.90
2023-05-18T13:52:31.364Z,1.88
2023-05-18T13:54:59.594Z,1.90
2023-05-18T13:57:27.715Z,2.20
2023-05-18T13:59:58.695Z,1.90
2023-05-18T14:02:31.128Z,2.28
2023-05-18T14:04:59.773Z,1.50
2023-05-18T14:07:27.811Z,2.10
2023-05-18T14:09:55.789Z,2.00
2023-05-18T14:12:23.842Z,2.38
2023-05-18T14:14:51.907Z,2.17
2023-05-18T14:17:19.997Z,2.10
2023-05-18T14:19:49.416Z,2.50
2023-05-18T14:22:18.800Z,1.90
2023-05-18T14:24:46.840Z,2.17
2023-05-18T14:27:14.784Z,2.20
2023-05-18T14:29:42.860Z,2.33
2023-05-18T14:32:10.945Z,2.53
2023-05-18T14:34:38.965Z,2.35
2023-05-18T14:37:08.366Z,2.20
2023-05-18T14:39:36.408Z,2.58
2023-05-18T14:42:04.471Z,2.47
2023-05-18T14:44:32.493Z,2.35
2023-05-18T14:47:00.534Z,2.22
2023-05-18T14:49:28.679Z,2.28
2023-05-18T14:51:56.665Z,2.67
2023-05-18T14:54:26.040Z,2.50
2023-05-18T14:56:54.035Z,2.60
2023-05-18T14:59:22.403Z,2.47
2023-05-18T15:01:50.614Z,2.63
2023-05-18T15:04:19.281Z,2.22
2023-05-18T15:06:47.314Z,2.40
2023-05-18T15:09:17.452Z,2.40
2023-05-18T15:11:46.897Z,3.45
2023-05-18T15:14:14.906Z,3.20
2023-05-18T15:16:43.375Z,2.50
2023-05-18T15:19:11.456Z,2.83
2023-05-18T15:21:39.482Z,3.25
2023-05-18T15:24:08.091Z,2.83
2023-05-18T15:26:36.395Z,2.58
2023-05-18T15:29:05.794Z,3.30
2023-05-18T15:31:39.698Z,3.10
2023-05-18T15:34:08.669Z,2.70
2023-05-18T15:36:37.720Z,2.95
2023-05-18T15:39:05.944Z,2.65
2023-05-18T15:41:34.569Z,2.92
2023-05-18T15:44:02.976Z,3.05
2023-05-18T15:46:35.530Z,3.10
2023-05-18T15:49:04.059Z,2.67
2023-05-18T15:51:32.216Z,2.65
2023-05-18T15:54:03.203Z,2.40
2023-05-18T15:56:31.377Z,2.80
2023-05-18T15:58:59.330Z,2.28
2023-05-18T16:01:27.327Z,2.95
2023-05-18T16:03:56.739Z,2.42
2023-05-18T16:06:24.968Z,2.92
2023-05-18T16:08:52.899Z,2.70
2023-05-18T16:11:21.769Z,3.10
2023-05-18T16:13:50.290Z,3.30
2023-05-18T16:16:19.120Z,3.00
2023-05-18T16:18:50.632Z,3.22
2023-05-18T16:21:20.187Z,2.55
2023-05-18T16:23:48.263Z,2.78
2023-05-18T16:26:16.247Z,2.67
2023-05-18T16:28:44.205Z,2.65
2023-05-18T16:31:12.389Z,2.38
2023-05-18T16:33:41.019Z,2.50
2023-05-18T16:36:09.371Z,2.70
2023-05-18T16:38:39.289Z,2.97
2023-05-18T16:41:07.576Z,3.00
2023-05-18T16:43:36.544Z,2.47
2023-05-18T16:46:07.649Z,2.40
2023-05-18T16:48:35.732Z,2.42
2023-05-18T16:51:06.714Z,2.67
2023-05-18T16:53:38.896Z,2.30
2023-05-18T16:56:07.277Z,2.30
2023-05-18T16:58:35.324Z,2.40
2023-05-18T17:01:07.610Z,2.80
2023-05-18T17:03:44.189Z,2.25
2023-05-18T17:06:12.427Z,2.50
2023-05-18T17:08:41.802Z,2.75
2023-05-18T17:11:09.836Z,2.63
2023-05-18T17:13:37.886Z,2.90
2023-05-18T17:16:06.620Z,2.33
2023-05-18T17:18:34.784Z,2.20
2023-05-18T17:21:02.808Z,2.30
2023-05-18T17:23:31.045Z,2.53
2023-05-18T17:26:05.976Z,2.90
2023-05-18T17:28:34.473Z,2.58
2023-05-18T17:31:02.653Z,2.88
2023-05-18T17:33:30.811Z,2.33
2023-05-18T17:35:58.978Z,2.38
2023-05-18T17:38:27.191Z,2.40
2023-05-18T17:40:56.612Z,2.08
2023-05-18T17:43:26.023Z,2.85
2023-05-18T17:45:54.066Z,2.50
2023-05-18T17:48:22.050Z,2.55
2023-05-18T17:50:52.130Z,2.20
2023-05-18T17:53:20.818Z,2.50
2023-05-18T17:55:51.824Z,2.00
2023-05-18T17:58:19.808Z,2.35
2023-05-18T18:00:52.096Z,2.10
2023-05-18T18:03:22.575Z,2.25
2023-05-18T18:05:50.702Z,2.22
2023-05-18T18:08:18.743Z,2.45
2023-05-18T18:10:49.295Z,2.08
2023-05-18T18:13:17.313Z,2.28
2023-05-18T18:15:45.996Z,2.53
2023-05-18T18:18:15.400Z,2.28
2023-05-18T18:20:43.543Z,2.20
2023-05-18T18:23:11.804Z,2.50
2023-05-18T18:25:39.954Z,2.45
2023-05-18T18:28:08.242Z,2.22
2023-05-18T18:30:36.230Z,2.17
2023-05-18T18:33:04.276Z,2.28
2023-05-18T18:35:33.703Z,2.38
2023-05-18T18:38:01.715Z,2.40
2023-05-18T18:40:29.945Z,2.75
2023-05-18T18:42:58.127Z,2.33
2023-05-18T18:45:26.926Z,2.50
2023-05-18T18:47:54.957Z,2.22
2023-05-18T18:50:23.302Z,2.63
2023-05-18T18:52:52.685Z,2.92
2023-05-18T18:55:21.140Z,2.75
2023-05-18T18:57:49.139Z,2.53
2023-05-18T19:00:20.256Z,2.58
2023-05-18T19:02:48.895Z,2.58
2023-05-18T19:05:21.541Z,2.53
2023-05-18T19:07:50.412Z,2.58
2023-05-18T19:10:20.033Z,2.20
2023-05-18T19:12:48.682Z,2.47
2023-05-18T19:15:16.948Z,2.30
2023-05-18T19:17:45.843Z,2.60
2023-05-18T19:20:13.971Z,2.53
2023-05-18T19:22:42.031Z,2.20
2023-05-18T19:25:10.781Z,2.83
2023-05-18T19:27:40.211Z,2.70
2023-05-18T19:30:09.714Z,2.83
2023-05-18T19:32:37.808Z,2.97
2023-05-18T19:35:06.035Z,2.55
2023-05-18T19:37:34.035Z,2.58
2023-05-18T19:40:02.031Z,2.75
2023-05-18T19:42:29.986Z,2.70
2023-05-18T19:44:59.481Z,2.53
2023-05-18T19:47:30.545Z,2.28
2023-05-18T19:49:59.494Z,2.58
2023-05-18T19:52:27.555Z,2.65
2023-05-18T19:54:56.239Z,2.72
2023-05-18T19:57:26.223Z,2.72
2023-05-18T19:59:54.244Z,3.22
2023-05-18T20:02:23.632Z,2.60
2023-05-18T20:04:51.649Z,2.65
2023-05-18T20:07:20.473Z,2.35
2023-05-18T20:09:48.413Z,2.88
2023-05-18T20:12:16.426Z,2.70
2023-05-18T20:14:45.807Z,2.58
2023-05-18T20:17:15.163Z,2.75
2023-05-18T20:19:50.402Z,2.80
2023-05-18T20:22:18.853Z,2.78
2023-05-18T20:24:47.010Z,2.70
2023-05-18T20:27:16.365Z,2.70
2023-05-18T20:29:44.453Z,3.00
2023-05-18T20:32:12.425Z,2.80
2023-05-18T20:34:44.403Z,2.90
2023-05-18T20:37:14.017Z,3.13
2023-05-18T20:39:50.380Z,3.10
2023-05-18T20:42:22.816Z,2.20
2023-05-18T20:47:22.755Z,2.70
2023-05-18T20:49:51.061Z,2.88
2023-05-18T20:52:20.633Z,2.60
2023-05-18T20:54:48.556Z,2.70
2023-05-18T20:57:16.614Z,2.78
2023-05-18T20:59:44.924Z,2.70
2023-05-18T21:02:12.936Z,2.75
2023-05-18T21:04:41.158Z,2.90
2023-05-18T21:07:09.954Z,3.03
2023-05-18T21:09:39.496Z,2.85
2023-05-18T21:12:08.244Z,2.83
2023-05-18T21:14:36.252Z,2.50
2023-05-18T21:17:04.269Z,3.10
2023-05-18T21:19:32.308Z,2.72
2023-05-18T21:22:00.577Z,2.85
2023-05-18T21:24:28.691Z,2.60
2023-05-18T21:26:58.134Z,2.63
2023-05-18T21:29:26.114Z,2.65
2023-05-18T21:31:54.167Z,2.63
2023-05-18T21:34:22.458Z,2.42
2023-05-18T21:36:50.653Z,3.05
2023-05-18T21:39:18.729Z,2.95
2023-05-18T21:41:46.745Z,2.70
2023-05-18T21:44:16.095Z,2.60
2023-05-18T21:46:44.113Z,2.53
2023-05-18T21:49:12.604Z,3.10
2023-05-18T21:51:40.640Z,2.78
2023-05-18T21:54:08.677Z,3.00
2023-05-18T21:56:36.901Z,2.83
2023-05-18T21:59:04.997Z,2.63
2023-05-18T22:01:34.573Z,2.92
2023-05-18T22:04:02.736Z,2.50
2023-05-18T22:06:31.175Z,2.80
2023-05-18T22:08:59.240Z,2.85
2023-05-18T22:11:27.373Z,2.50
2023-05-18T22:13:55.549Z,2.67
2023-05-18T22:16:26.033Z,2.60
2023-05-18T22:18:55.445Z,2.50
2023-05-18T22:21:23.521Z,2.90
2023-05-18T22:23:51.567Z,2.60
2023-05-18T22:26:20.253Z,2.55
2023-05-18T22:28:48.381Z,2.60
2023-05-18T22:31:16.398Z,2.33
2023-05-18T22:33:44.352Z,2.67
2023-05-18T22:36:14.732Z,2.55
2023-05-18T22:38:43.910Z,2.15
2023-05-18T22:41:11.963Z,2.90
2023-05-18T22:43:39.926Z,2.70
2023-05-18T22:46:08.355Z,2.83
2023-05-18T22:48:36.333Z,2.50
2023-05-18T22:51:06.049Z,2.70
2023-05-18T22:53:35.372Z,2.60
2023-05-18T22:56:03.377Z,2.25
2023-05-18T22:58:31.346Z,2.33
2023-05-18T23:00:59.346Z,2.25
2023-05-18T23:03:27.295Z,2.38
2023-05-18T23:05:55.302Z,2.15
2023-05-18T23:08:23.830Z,2.50
2023-05-18T23:10:53.687Z,2.50
2023-05-18T23:13:22.384Z,2.45
2023-05-18T23:15:50.481Z,2.42
2023-05-18T23:18:18.421Z,2.20
2023-05-18T23:20:46.455Z,2.33
2023-05-18T23:23:14.431Z,2.58
2023-05-18T23:25:44.931Z,2.10
2023-05-18T23:28:14.288Z,2.40
2023-05-18T23:30:42.280Z,2.40
2023-05-18T23:33:10.827Z,2.28
2023-05-18T23:35:39.560Z,2.40
2023-05-18T23:38:10.544Z,2.40
2023-05-18T23:40:38.704Z,2.20
2023-05-18T23:43:07.107Z,2.22
2023-05-18T23:45:37.081Z,2.17
2023-05-18T23:48:05.840Z,2.42
2023-05-18T23:50:34.422Z,2.20
2023-05-18T23:53:04.618Z,2.40
2023-05-18T23:55:36.189Z,2.42
2023-05-18T23:58:05.091Z,2.60
